Time;durP1;ratioP1;P1;durP2;ratioP2;P2;SDS_P1;SDS_P2;PMS_P1;PMS_P2;Temp;Humidity;BMP_temperature;BMP_pressure;BME280_temperature;BME280_humidity;BME280_pressure;Samples;Min_cycle;Max_cycle;Signal;HPM_P1;HPM_P2
2023/01/19 00:01:38;;;;;;;17.85;11.30;;;2.40;99.90;;;;;;5009585;28;20080;-65
2023/01/19 00:04:05;;;;;;;17.75;11.27;;;2.40;99.90;;;;;;5009121;28;20163;-67
2023/01/19 00:06:31;;;;;;;18.40;11.02;;;2.30;99.90;;;;;;5007426;28;20041;-67
2023/01/19 00:08:57;;;;;;;13.80;10.90;;;2.50;99.90;;;;;;5006791;28;20037;-67
2023/01/19 00:11:23;;;;;;;17.27;12.15;;;2.00;99.90;;;;;;4990598;28;20045;-67
2023/01/19 00:13:49;;;;;;;16.05;10.75;;;2.40;99.90;;;;;;4992650;28;20682;-67
2023/01/19 00:16:17;;;;;;;17.80;11.40;;;2.20;99.90;;;;;;4975993;28;20038;-67
2023/01/19 00:18:45;;;;;;;15.02;8.15;;;2.30;99.90;;;;;;5007198;28;20045;-67
2023/01/19 00:21:13;;;;;;;14.88;9.10;;;2.20;99.90;;;;;;5007307;28;20391;-67
2023/01/19 00:23:40;;;;;;;13.15;9.82;;;2.50;99.90;;;;;;5009983;28;20049;-66
2023/01/19 00:26:07;;;;;;;13.05;9.43;;;2.50;99.90;;;;;;5009348;28;20475;-67
2023/01/19 00:28:33;;;;;;;13.85;9.77;;;2.20;99.90;;;;;;5006952;28;20045;-67
2023/01/19 00:30:59;;;;;;;12.07;8.40;;;2.30;99.90;;;;;;5008852;28;20033;-67
2023/01/19 00:33:25;;;;;;;13.23;8.63;;;2.10;99.90;;;;;;5008069;28;20588;-66
2023/01/19 00:35:52;;;;;;;13.35;8.93;;;2.40;99.90;;;;;;4992242;28;20045;-68
2023/01/19 00:38:18;;;;;;;11.75;8.43;;;1.80;99.90;;;;;;4990741;28;20045;-66
2023/01/19 00:40:44;;;;;;;11.80;7.60;;;1.90;99.90;;;;;;5007147;28;20116;-67
2023/01/19 00:43:10;;;;;;;9.02;7.82;;;1.80;99.90;;;;;;4976075;28;20038;-67
2023/01/19 00:45:35;;;;;;;11.48;7.97;;;1.80;99.90;;;;;;5009725;28;20064;-67
2023/01/19 00:48:01;;;;;;;10.43;8.43;;;1.70;99.90;;;;;;5007315;28;20045;-67
2023/01/19 00:50:29;;;;;;;12.20;8.27;;;1.70;99.90;;;;;;4982396;28;20042;-67
2023/01/19 00:52:55;;;;;;;9.48;7.75;;;2.00;99.90;;;;;;4992231;28;20043;-67
2023/01/19 00:55:22;;;;;;;11.80;8.48;;;2.10;99.90;;;;;;5007384;28;20037;-67
2023/01/19 00:57:48;;;;;;;12.55;8.05;;;1.80;99.90;;;;;;5006262;28;20129;-68
2023/01/19 01:00:18;;;;;;;12.25;8.68;;;2.10;99.90;;;;;;5008450;28;20035;-67
2023/01/19 01:02:44;;;;;;;10.32;8.50;;;1.90;99.90;;;;;;5006090;28;20072;-66
2023/01/19 01:05:11;;;;;;;14.60;9.20;;;1.80;99.90;;;;;;4990501;28;20172;-67
2023/01/19 01:07:39;;;;;;;13.43;8.80;;;1.70;99.90;;;;;;5007066;28;20041;-66
2023/01/19 01:10:37;;;;;;;15.98;8.65;;;1.80;99.90;;;;;;5008652;28;20814;-66
2023/01/19 01:13:03;;;;;;;11.35;7.90;;;1.70;99.90;;;;;;5003263;28;20041;-65
2023/01/19 01:15:29;;;;;;;18.98;9.93;;;2.00;99.90;;;;;;5009558;28;20040;-67
2023/01/19 01:17:55;;;;;;;12.23;8.25;;;2.10;99.90;;;;;;5010261;28;20450;-66
2023/01/19 01:20:26;;;;;;;13.80;8.70;;;1.70;99.90;;;;;;5008948;28;20511;-67
2023/01/19 01:22:52;;;;;;;12.23;7.72;;;1.70;99.90;;;;;;5009912;28;20435;-67
2023/01/19 01:25:23;;;;;;;12.15;7.88;;;2.20;99.90;;;;;;5010024;28;20483;-66
2023/01/19 01:27:49;;;;;;;15.85;7.90;;;2.30;99.90;;;;;;4993034;28;20034;-67
2023/01/19 01:30:16;;;;;;;12.80;6.32;;;1.90;99.90;;;;;;5011197;28;20550;-66
2023/01/19 01:32:42;;;;;;;11.52;7.07;;;1.90;99.90;;;;;;5011128;28;20245;-67
2023/01/19 01:35:08;;;;;;;10.90;6.07;;;2.30;99.90;;;;;;5010617;28;20740;-67
2023/01/19 01:37:35;;;;;;;9.43;6.20;;;1.90;99.90;;;;;;4994495;28;20307;-66
2023/01/19 01:40:01;;;;;;;12.93;5.65;;;2.10;99.90;;;;;;5009462;28;20116;-66
2023/01/19 01:42:29;;;;;;;7.68;4.03;;;2.00;99.90;;;;;;5010461;28;20386;-67
2023/01/19 01:44:58;;;;;;;7.90;4.20;;;2.40;99.90;;;;;;5009857;28;20049;-68
2023/01/19 01:47:35;;;;;;;7.55;2.47;;;2.60;99.90;;;;;;5010152;28;20068;-68
2023/01/19 01:50:13;;;;;;;5.22;3.08;;;2.30;99.90;;;;;;5010042;28;20100;-67
2023/01/19 01:53:03;;;;;;;8.85;2.78;;;2.70;99.90;;;;;;4983297;28;20393;-68
2023/01/19 01:55:31;;;;;;;8.13;2.10;;;2.60;99.90;;;;;;5008481;28;20108;-68
2023/01/19 01:58:02;;;;;;;6.35;2.03;;;2.70;99.90;;;;;;4993004;28;20037;-66
2023/01/19 02:02:49;;;;;;;5.35;1.63;;;2.50;99.90;;;;;;5008762;28;20120;-67
2023/01/19 02:03:15;;;;;;;7.60;1.30;;;2.80;99.90;;;;;;5011703;28;20397;-67
2023/01/19 02:05:42;;;;;;;5.05;0.98;;;2.50;99.90;;;;;;5011011;28;20396;-67
2023/01/19 02:13:45;;;;;;;5.20;1.95;;;2.60;99.90;;;;;;5009376;28;20045;-67
2023/01/19 02:16:13;;;;;;;5.85;2.50;;;2.50;99.90;;;;;;5010596;28;20647;-67
2023/01/19 02:18:39;;;;;;;4.47;2.30;;;2.90;99.90;;;;;;5009681;28;20037;-67
2023/01/19 02:21:36;;;;;;;4.57;2.90;;;2.60;99.90;;;;;;4977090;28;20041;-67
2023/01/19 02:24:02;;;;;;;4.75;2.75;;;2.40;99.90;;;;;;5009714;28;20046;-67
2023/01/19 02:26:43;;;;;;;5.55;3.60;;;2.40;99.90;;;;;;4992224;28;20091;-67
2023/01/19 02:29:11;;;;;;;6.78;5.03;;;2.70;99.90;;;;;;5011721;28;20055;-67
2023/01/19 02:31:38;;;;;;;8.55;5.03;;;2.70;99.90;;;;;;4994476;28;20480;-67
2023/01/19 02:34:06;;;;;;;5.55;4.88;;;2.40;99.90;;;;;;4975595;28;20549;-67
2023/01/19 02:37:05;;;;;;;7.13;5.53;;;2.70;99.90;;;;;;5009692;28;20562;-67
2023/01/19 02:39:49;;;;;;;7.95;5.20;;;2.60;99.90;;;;;;4994382;28;20415;-67
2023/01/19 02:42:38;;;;;;;5.85;5.13;;;2.20;99.90;;;;;;5008553;28;20619;-67
2023/01/19 02:45:08;;;;;;;9.07;6.20;;;2.20;99.90;;;;;;5009419;28;20060;-66
2023/01/19 02:47:38;;;;;;;7.93;5.85;;;2.30;99.90;;;;;;5011366;28;20045;-64
2023/01/19 02:50:04;;;;;;;10.98;7.50;;;2.20;99.90;;;;;;5008950;28;20544;-65
2023/01/19 02:52:30;;;;;;;9.35;6.20;;;2.50;99.90;;;;;;4993715;28;20029;-66
2023/01/19 02:55:18;;;;;;;9.98;7.88;;;2.20;99.90;;;;;;5010346;28;20791;-65
2023/01/19 02:57:50;;;;;;;11.80;7.10;;;2.30;99.90;;;;;;5008345;28;20061;-66
2023/01/19 03:00:31;;;;;;;12.57;8.30;;;2.50;99.90;;;;;;4995618;28;20153;-65
2023/01/19 03:03:01;;;;;;;10.75;8.40;;;2.30;99.90;;;;;;5012431;28;20044;-65
2023/01/19 03:05:48;;;;;;;13.10;8.55;;;2.40;99.90;;;;;;4994886;28;20421;-66
2023/01/19 03:08:38;;;;;;;9.98;6.28;;;2.40;99.90;;;;;;5011802;28;20095;-66
2023/01/19 03:11:04;;;;;;;10.88;7.88;;;2.00;99.90;;;;;;5009735;28;20033;-66
2023/01/19 03:14:03;;;;;;;15.18;9.00;;;2.30;99.90;;;;;;5009872;28;20494;-65
2023/01/19 03:16:49;;;;;;;10.63;7.85;;;2.00;99.90;;;;;;5009647;28;20048;-65
2023/01/19 03:19:26;;;;;;;14.07;8.65;;;2.50;99.90;;;;;;4988096;28;20511;-66
2023/01/19 03:22:02;;;;;;;13.55;8.77;;;2.40;99.90;;;;;;4976801;28;20076;-66
2023/01/19 03:24:32;;;;;;;12.13;9.52;;;2.20;99.90;;;;;;5009882;28;20136;-65
2023/01/19 03:27:21;;;;;;;12.30;8.65;;;2.40;99.90;;;;;;5009078;28;20037;-65
2023/01/19 03:29:53;;;;;;;12.05;8.55;;;2.00;99.90;;;;;;4974063;28;20053;-65
2023/01/19 03:32:22;;;;;;;8.52;5.57;;;2.40;99.90;;;;;;5008832;28;20135;-65
2023/01/19 03:34:50;;;;;;;9.35;7.32;;;1.90;99.90;;;;;;5009079;28;20056;-65
2023/01/19 03:37:18;;;;;;;7.22;4.95;;;2.00;99.90;;;;;;4993732;28;20068;-65
2023/01/19 03:39:44;;;;;;;8.32;6.93;;;1.90;99.90;;;;;;4992331;28;20491;-66
2023/01/19 03:42:14;;;;;;;10.30;7.57;;;1.90;99.90;;;;;;5009497;28;20807;-65
2023/01/19 03:44:41;;;;;;;9.60;7.40;;;1.80;99.90;;;;;;5026301;28;20116;-66
2023/01/19 03:47:10;;;;;;;10.05;7.03;;;2.00;99.90;;;;;;5011578;28;20188;-65
2023/01/19 03:49:38;;;;;;;12.73;7.55;;;2.20;99.90;;;;;;5010284;28;20045;-66
2023/01/19 03:52:04;;;;;;;9.63;6.60;;;2.20;99.90;;;;;;5010107;28;20553;-67
2023/01/19 03:54:30;;;;;;;11.25;7.53;;;2.10;99.90;;;;;;5011484;28;20047;-66
2023/01/19 03:56:56;;;;;;;12.35;8.57;;;2.20;99.90;;;;;;5010874;28;20216;-66
2023/01/19 03:59:22;;;;;;;11.25;8.18;;;1.70;99.90;;;;;;5009112;28;20092;-66
2023/01/19 04:01:48;;;;;;;12.50;8.18;;;2.10;99.90;;;;;;4992478;28;20083;-66
2023/01/19 04:04:14;;;;;;;12.27;7.95;;;2.10;99.90;;;;;;5008969;28;20648;-66
2023/01/19 04:06:40;;;;;;;11.48;8.45;;;2.00;99.90;;;;;;5010947;28;20558;-67
2023/01/19 04:09:07;;;;;;;13.25;9.25;;;2.00;99.90;;;;;;5012186;28;20034;-66
2023/01/19 04:11:32;;;;;;;15.00;9.65;;;2.10;99.90;;;;;;5009144;28;20180;-66
2023/01/19 04:13:58;;;;;;;15.60;10.27;;;1.70;99.90;;;;;;5008084;28;20497;-66
2023/01/19 04:16:24;;;;;;;17.10;10.77;;;2.10;99.90;;;;;;5010306;28;20053;-66
2023/01/19 04:18:51;;;;;;;20.05;11.55;;;2.30;99.90;;;;;;5010373;28;20045;-66
2023/01/19 04:21:19;;;;;;;13.18;9.50;;;2.30;99.90;;;;;;4992461;28;20049;-66
2023/01/19 04:23:45;;;;;;;15.25;11.02;;;2.30;99.90;;;;;;4993456;28;20467;-66
2023/01/19 04:26:10;;;;;;;19.30;12.35;;;1.90;99.90;;;;;;5009473;28;20476;-67
2023/01/19 04:28:36;;;;;;;20.27;12.30;;;2.30;99.90;;;;;;5009340;28;20447;-66
2023/01/19 04:31:04;;;;;;;23.23;13.80;;;2.20;99.90;;;;;;4993928;28;20060;-66
2023/01/19 04:33:30;;;;;;;21.95;13.57;;;2.00;99.90;;;;;;4990666;28;20053;-67
2023/01/19 04:35:56;;;;;;;19.83;13.10;;;1.70;99.90;;;;;;5011584;28;20083;-66
2023/01/19 04:38:23;;;;;;;25.58;15.93;;;2.10;99.90;;;;;;4991877;28;20132;-66
2023/01/19 04:40:51;;;;;;;25.55;14.63;;;2.10;99.90;;;;;;4993193;28;20053;-66
2023/01/19 04:43:18;;;;;;;24.60;15.50;;;1.70;99.90;;;;;;5011073;28;20164;-66
2023/01/19 04:45:44;;;;;;;25.40;14.05;;;1.90;99.90;;;;;;5011582;28;20041;-64
2023/01/19 04:48:11;;;;;;;24.92;14.10;;;1.70;99.90;;;;;;5009176;28;20411;-65
2023/01/19 04:50:37;;;;;;;23.08;13.98;;;1.50;99.90;;;;;;5013133;28;20067;-66
2023/01/19 04:53:03;;;;;;;24.25;14.07;;;1.40;99.90;;;;;;5013308;28;20034;-65
2023/01/19 04:55:29;;;;;;;33.35;16.30;;;1.70;99.90;;;;;;5013277;28;20072;-65
2023/01/19 04:57:54;;;;;;;31.50;15.90;;;1.30;99.90;;;;;;5014812;28;20056;-66
2023/01/19 05:00:21;;;;;;;33.70;17.75;;;1.80;99.90;;;;;;5013081;28;20045;-66
2023/01/19 05:02:46;;;;;;;30.70;16.48;;;1.80;99.90;;;;;;5009918;28;20123;-67
2023/01/19 05:05:12;;;;;;;39.92;18.48;;;1.80;99.90;;;;;;4994868;28;20356;-67
2023/01/19 05:07:38;;;;;;;38.22;18.23;;;1.70;99.90;;;;;;5010918;28;20261;-66
2023/01/19 05:10:05;;;;;;;36.22;16.55;;;1.40;99.90;;;;;;5009808;28;20041;-66
2023/01/19 05:12:31;;;;;;;41.28;18.13;;;1.20;99.90;;;;;;4988702;28;20067;-67
2023/01/19 05:14:57;;;;;;;34.42;16.40;;;1.70;99.90;;;;;;4994819;28;20762;-66
2023/01/19 05:17:23;;;;;;;38.38;17.45;;;1.60;99.90;;;;;;4991814;28;20045;-66
2023/01/19 05:19:48;;;;;;;47.28;19.60;;;1.40;99.90;;;;;;5010033;28;20088;-66
2023/01/19 05:22:14;;;;;;;35.42;17.98;;;1.10;99.90;;;;;;5011085;28;20260;-66
2023/01/19 05:24:40;;;;;;;39.33;18.42;;;1.20;99.90;;;;;;5028836;28;20056;-66
2023/01/19 05:27:06;;;;;;;40.55;16.98;;;1.10;99.90;;;;;;4976157;28;20068;-66
2023/01/19 05:29:31;;;;;;;50.78;19.98;;;1.20;99.90;;;;;;4992206;28;20419;-66
2023/01/19 05:31:57;;;;;;;46.78;19.27;;;1.30;99.90;;;;;;4976660;28;20095;-66
2023/01/19 05:34:23;;;;;;;60.22;20.52;;;1.70;99.90;;;;;;4999666;28;20147;-67
2023/01/19 05:36:49;;;;;;;67.47;23.02;;;1.10;99.90;;;;;;5013435;28;20576;-67
2023/01/19 05:39:14;;;;;;;39.35;18.63;;;1.40;99.90;;;;;;4997184;28;20080;-67
2023/01/19 05:41:46;;;;;;;46.63;19.48;;;1.20;99.90;;;;;;4997753;28;20637;-68
2023/01/19 05:44:12;;;;;;;53.20;19.75;;;1.70;99.90;;;;;;5014154;28;20209;-67
2023/01/19 05:46:38;;;;;;;50.35;19.35;;;1.10;99.90;;;;;;5031747;28;20653;-67
2023/01/19 05:49:06;;;;;;;54.17;19.77;;;1.40;99.90;;;;;;4996759;28;20036;-67
2023/01/19 05:51:36;;;;;;;52.80;19.25;;;1.20;99.90;;;;;;5031807;28;20065;-67
2023/01/19 05:54:06;;;;;;;51.05;19.27;;;1.70;99.90;;;;;;5013007;28;20052;-67
2023/01/19 05:56:32;;;;;;;53.30;19.00;;;1.20;99.90;;;;;;4987634;28;20253;-67
2023/01/19 05:58:59;;;;;;;53.40;19.30;;;1.30;99.90;;;;;;5012011;28;20037;-67
2023/01/19 06:01:25;;;;;;;52.33;19.80;;;1.60;99.90;;;;;;5012723;28;20188;-67
2023/01/19 06:03:50;;;;;;;51.60;18.00;;;1.60;99.90;;;;;;5012341;28;20694;-67
2023/01/19 06:06:17;;;;;;;34.92;15.50;;;1.00;99.90;;;;;;5030773;28;20045;-67
2023/01/19 06:08:43;;;;;;;53.50;18.15;;;1.10;99.90;;;;;;5006446;28;20511;-67
2023/01/19 06:11:09;;;;;;;47.25;17.45;;;1.50;99.90;;;;;;5031506;28;20041;-66
2023/01/19 06:13:35;;;;;;;30.92;14.07;;;1.30;99.90;;;;;;5013156;28;20731;-67
2023/01/19 06:16:01;;;;;;;30.73;12.88;;;1.50;99.90;;;;;;5010985;28;20124;-66
2023/01/19 06:18:28;;;;;;;25.17;10.88;;;1.50;99.90;;;;;;5030186;28;20338;-66
2023/01/19 06:20:57;;;;;;;25.90;10.82;;;1.10;99.90;;;;;;4980330;28;20049;-67
2023/01/19 06:23:30;;;;;;;22.95;8.98;;;1.20;99.90;;;;;;5011439;28;20052;-67
2023/01/19 06:25:55;;;;;;;22.13;9.50;;;1.70;99.90;;;;;;5010871;28;20045;-67
2023/01/19 06:28:22;;;;;;;22.63;9.23;;;1.30;99.90;;;;;;5030995;28;20036;-67
2023/01/19 06:30:52;;;;;;;23.13;8.93;;;1.80;99.90;;;;;;5013176;28;20517;-67
2023/01/19 06:33:19;;;;;;;22.73;8.75;;;1.80;99.90;;;;;;5011924;28;21815;-65
2023/01/19 06:35:49;;;;;;;18.35;5.78;;;1.40;99.90;;;;;;4979821;28;20049;-66
2023/01/19 06:38:18;;;;;;;21.17;8.60;;;1.70;99.90;;;;;;4995523;28;20240;-66
2023/01/19 06:40:57;;;;;;;16.08;5.45;;;1.70;99.90;;;;;;5011299;28;20079;-66
2023/01/19 06:43:23;;;;;;;16.13;5.00;;;1.70;99.90;;;;;;5012005;28;20312;-67
2023/01/19 06:45:49;;;;;;;13.57;4.43;;;1.90;99.90;;;;;;5013564;28;20123;-65
2023/01/19 06:48:16;;;;;;;15.63;5.00;;;1.70;99.90;;;;;;5013104;28;20037;-66
2023/01/19 06:50:44;;;;;;;14.98;3.63;;;1.70;99.90;;;;;;4996760;28;20040;-65
2023/01/19 06:53:11;;;;;;;11.65;2.92;;;2.00;99.90;;;;;;5029749;28;20438;-65
2023/01/19 06:55:38;;;;;;;16.08;3.83;;;1.50;99.90;;;;;;4998362;28;20041;-65
2023/01/19 06:58:03;;;;;;;17.35;4.18;;;1.70;99.90;;;;;;5029438;28;20051;-65
2023/01/19 07:00:29;;;;;;;14.70;3.80;;;1.40;99.90;;;;;;5011462;28;20219;-64
2023/01/19 07:02:55;;;;;;;12.80;4.20;;;1.40;99.90;;;;;;5012123;28;20029;-64
2023/01/19 07:05:21;;;;;;;15.05;3.92;;;1.30;99.90;;;;;;5012456;28;20037;-64
2023/01/19 07:07:51;;;;;;;24.45;5.50;;;1.80;99.90;;;;;;5011714;28;20057;-64
2023/01/19 07:10:17;;;;;;;15.30;3.97;;;1.50;99.90;;;;;;5030216;28;20120;-64
2023/01/19 07:12:45;;;;;;;18.10;4.60;;;1.40;99.90;;;;;;5028556;28;20037;-65
2023/01/19 07:15:11;;;;;;;17.55;3.45;;;1.40;99.90;;;;;;4995498;28;21338;-64
2023/01/19 07:17:36;;;;;;;15.05;3.25;;;1.70;99.90;;;;;;5011954;28;20141;-65
2023/01/19 07:20:03;;;;;;;11.93;2.70;;;1.60;99.90;;;;;;5010480;28;20051;-64
2023/01/19 07:22:28;;;;;;;12.98;1.38;;;1.30;99.90;;;;;;5031865;28;20781;-64
2023/01/19 07:24:54;;;;;;;9.15;0.88;;;1.50;99.90;;;;;;5015794;28;20045;-66
2023/01/19 07:27:19;;;;;;;15.50;0.73;;;1.70;99.90;;;;;;5014134;28;20040;-65
2023/01/19 07:29:45;;;;;;;10.48;0.75;;;2.00;99.90;;;;;;4997513;28;20478;-64
2023/01/19 07:32:11;;;;;;;8.77;0.52;;;2.50;99.90;;;;;;4998522;28;20338;-65
2023/01/19 07:34:37;;;;;;;11.75;0.63;;;2.50;99.90;;;;;;5029976;28;20340;-64
2023/01/19 07:37:03;;;;;;;11.65;0.63;;;2.80;99.90;;;;;;4997986;28;20257;-65
2023/01/19 07:39:30;;;;;;;9.93;0.88;;;2.80;99.90;;;;;;5031979;28;20045;-65
2023/01/19 07:41:56;;;;;;;11.50;1.35;;;3.00;99.90;;;;;;5030654;28;20045;-65
2023/01/19 07:44:22;;;;;;;16.02;0.80;;;3.00;99.90;;;;;;5030090;28;20071;-65
2023/01/19 07:46:49;;;;;;;13.82;0.70;;;3.10;99.90;;;;;;5012363;28;20037;-64
2023/01/19 07:49:15;;;;;;;15.02;0.77;;;3.20;99.90;;;;;;4997139;28;20055;-64
2023/01/19 07:51:42;;;;;;;15.00;1.05;;;3.20;99.90;;;;;;4998819;28;20025;-65
2023/01/19 07:54:08;;;;;;;11.85;0.50;;;3.20;99.90;;;;;;5016798;28;20056;-64
2023/01/19 07:56:34;;;;;;;14.90;1.00;;;3.20;99.90;;;;;;5013551;28;20514;-64
2023/01/19 07:59:00;;;;;;;15.57;0.63;;;3.30;99.90;;;;;;5030652;28;20033;-65
2023/01/19 08:01:25;;;;;;;13.65;1.52;;;3.20;99.90;;;;;;5029644;28;20116;-65
2023/01/19 08:03:51;;;;;;;8.68;0.52;;;3.40;99.90;;;;;;5009973;28;20507;-65
2023/01/19 08:06:28;;;;;;;14.13;0.70;;;3.40;99.90;;;;;;5029522;28;20207;-66
2023/01/19 08:08:54;;;;;;;16.45;0.73;;;3.40;99.90;;;;;;5028802;28;20038;-64
2023/01/19 08:11:20;;;;;;;15.63;1.02;;;3.60;99.90;;;;;;5010332;28;20044;-64
2023/01/19 08:13:45;;;;;;;12.10;0.70;;;3.30;99.90;;;;;;5029766;28;20663;-64
2023/01/19 08:16:11;;;;;;;10.95;0.70;;;3.50;99.90;;;;;;5029381;28;20557;-64
2023/01/19 08:18:37;;;;;;;14.05;0.70;;;3.50;99.90;;;;;;4992395;28;20045;-66
2023/01/19 08:21:03;;;;;;;8.30;0.40;;;3.50;99.90;;;;;;5022241;28;20423;-65
2023/01/19 08:23:29;;;;;;;11.30;0.50;;;3.50;99.90;;;;;;5032097;28;20147;-67
2023/01/19 08:25:55;;;;;;;14.27;0.77;;;3.60;99.90;;;;;;5014120;28;20051;-66
2023/01/19 08:28:21;;;;;;;13.57;1.00;;;3.60;99.90;;;;;;5032664;28;20044;-64
2023/01/19 08:30:52;;;;;;;15.23;1.45;;;3.70;99.90;;;;;;4998538;28;20041;-65
2023/01/19 08:33:19;;;;;;;18.73;0.98;;;4.00;99.90;;;;;;5031764;28;20438;-67
2023/01/19 08:35:48;;;;;;;23.80;1.33;;;3.90;99.90;;;;;;5032930;28;20114;-67
2023/01/19 08:38:14;;;;;;;18.10;1.75;;;3.90;99.90;;;;;;5014256;28;20383;-67
2023/01/19 08:40:40;;;;;;;15.70;1.27;;;4.00;99.90;;;;;;4972876;28;20040;-67
2023/01/19 08:43:16;;;;;;;15.88;1.52;;;3.90;99.90;;;;;;5014073;28;20324;-67
2023/01/19 08:45:48;;;;;;;16.55;1.52;;;3.90;99.90;;;;;;4997555;28;20143;-68
2023/01/19 08:48:15;;;;;;;20.05;1.48;;;3.90;9.80;;;;;;4997969;28;20041;-68
2023/01/19 08:50:43;;;;;;;14.30;0.90;;;3.70;1.00;;;;;;4998635;28;20123;-68
2023/01/19 08:53:09;;;;;;;14.93;0.90;;;3.70;1.00;;;;;;5013644;28;20201;-68
2023/01/19 08:55:36;;;;;;;6.70;0.52;;;3.70;1.00;;;;;;5014694;28;20465;-68
2023/01/19 08:58:03;;;;;;;9.05;0.45;;;3.70;1.00;;;;;;5032829;28;20184;-68
2023/01/19 09:00:33;;;;;;;7.30;0.50;;;3.60;99.90;;;;;;4996694;28;20715;-68
2023/01/19 09:03:01;;;;;;;8.90;0.30;;;3.60;99.90;;;;;;5031916;28;20073;-68
2023/01/19 09:05:28;;;;;;;8.63;0.63;;;3.60;99.90;;;;;;5011592;28;20349;-67
2023/01/19 09:07:53;;;;;;;8.30;0.60;;;3.70;99.90;;;;;;4995838;28;20081;-68
2023/01/19 09:10:19;;;;;;;7.45;0.40;;;3.70;99.90;;;;;;5014947;28;20171;-67
2023/01/19 09:12:45;;;;;;;9.50;0.90;;;3.60;99.90;;;;;;4981163;28;20056;-67
2023/01/19 09:15:12;;;;;;;12.07;0.63;;;3.70;99.90;;;;;;4997437;28;20215;-67
2023/01/19 09:17:40;;;;;;;8.48;0.40;;;3.80;99.90;;;;;;4980036;28;20206;-68
2023/01/19 09:20:07;;;;;;;8.30;0.40;;;4.00;99.90;;;;;;5013592;28;20254;-68
2023/01/19 09:22:33;;;;;;;9.00;0.40;;;4.10;99.90;;;;;;5015137;28;20041;-68
2023/01/19 09:24:59;;;;;;;7.50;0.70;;;4.20;99.90;;;;;;5012578;28;20253;-68
2023/01/19 09:27:24;;;;;;;12.05;0.60;;;4.30;99.90;;;;;;5015527;28;20045;-68
2023/01/19 09:29:53;;;;;;;11.75;1.20;;;4.40;99.90;;;;;;5015669;28;20037;-68
2023/01/19 09:32:20;;;;;;;9.38;0.57;;;4.60;99.90;;;;;;5029576;28;20057;-67
2023/01/19 09:34:46;;;;;;;11.27;0.80;;;4.70;99.90;;;;;;4997101;28;20349;-67
2023/01/19 09:37:14;;;;;;;8.68;0.85;;;4.80;99.90;;;;;;4994389;28;20053;-67
2023/01/19 09:39:39;;;;;;;14.77;0.95;;;4.90;99.90;;;;;;4993154;28;20141;-67
2023/01/19 09:42:41;;;;;;;17.75;1.13;;;5.10;99.90;;;;;;4997535;28;20499;-67
2023/01/19 09:45:14;;;;;;;11.82;0.80;;;5.10;99.90;;;;;;4994967;28;20056;-67
2023/01/19 09:47:41;;;;;;;13.20;1.20;;;5.20;99.90;;;;;;4996614;28;20048;-67
2023/01/19 09:50:18;;;;;;;14.48;1.10;;;5.20;99.90;;;;;;5015235;28;20041;-67
2023/01/19 09:52:51;;;;;;;15.27;1.00;;;5.20;1.00;;;;;;5015291;28;20166;-67
2023/01/19 09:55:21;;;;;;;12.77;1.70;;;5.10;99.90;;;;;;5033399;28;20094;-67
2023/01/19 09:57:47;;;;;;;18.48;1.30;;;5.10;99.90;;;;;;5012401;28;20589;-67
2023/01/19 10:00:17;;;;;;;14.02;1.10;;;4.90;99.90;;;;;;5013705;28;20044;-67
2023/01/19 10:02:54;;;;;;;21.52;1.45;;;4.90;94.90;;;;;;5010197;28;20099;-67
2023/01/19 10:05:26;;;;;;;10.73;1.08;;;4.70;65.90;;;;;;5011525;28;20038;-67
2023/01/19 10:08:21;;;;;;;18.23;0.93;;;4.70;92.70;;;;;;5012180;28;20037;-67
2023/01/19 10:10:53;;;;;;;11.60;1.05;;;4.50;63.30;;;;;;5012787;28;20124;-67
2023/01/19 10:13:57;;;;;;;12.32;0.95;;;4.50;41.60;;;;;;5010250;28;20391;-66
2023/01/19 10:17:20;;;;;;;10.90;0.75;;;4.50;31.60;;;;;;4983289;28;20064;-66
2023/01/19 10:19:51;;;;;;;10.85;1.05;;;4.50;1.00;;;;;;4989134;28;20054;-66
2023/01/19 10:22:25;;;;;;;13.93;1.20;;;4.70;55.20;;;;;;5009331;28;20049;-66
2023/01/19 10:25:04;;;;;;;11.20;0.88;;;5.20;98.50;;;;;;5014110;28;20128;-66
2023/01/19 10:27:33;;;;;;;7.63;0.65;;;5.70;67.30;;;;;;5031451;28;20495;-66
2023/01/19 10:30:00;;;;;;;13.68;1.38;;;6.20;1.00;;;;;;5032273;28;20526;-66
2023/01/19 10:32:31;;;;;;;12.43;0.98;;;6.70;27.60;;;;;;5009653;28;20487;-67
2023/01/19 10:34:58;;;;;;;13.27;0.82;;;6.80;1.00;;;;;;5011161;28;20136;-67
2023/01/19 10:37:30;;;;;;;7.97;0.60;;;7.00;1.00;;;;;;5010102;28;20090;-67
2023/01/19 10:40:08;;;;;;;10.15;0.68;;;7.20;99.90;;;;;;4992884;28;20534;-67
2023/01/19 10:42:34;;;;;;;11.13;1.40;;;7.50;1.00;;;;;;4994839;28;20639;-66
2023/01/19 10:45:00;;;;;;;11.57;0.75;;;7.60;15.20;;;;;;5011832;28;20045;-66
2023/01/19 10:47:35;;;;;;;10.57;0.73;;;7.90;49.70;;;;;;5009763;28;20047;-67
2023/01/19 10:50:38;;;;;;;16.35;1.02;;;8.00;1.00;;;;;;5009930;28;20034;-67
2023/01/19 10:53:08;;;;;;;11.40;0.88;;;7.90;99.90;;;;;;4951815;28;20241;-67
2023/01/19 10:55:36;;;;;;;8.70;0.80;;;8.10;1.00;;;;;;5006743;28;20052;-67
2023/01/19 10:58:03;;;;;;;12.27;1.00;;;8.30;9.80;;;;;;5008828;28;20446;-67
2023/01/19 11:00:36;;;;;;;8.52;0.52;;;8.30;1.00;;;;;;5010793;28;20124;-67
2023/01/19 11:03:23;;;;;;;5.72;0.68;;;8.20;99.90;;;;;;5010525;28;20043;-66
2023/01/19 11:05:49;;;;;;;5.80;0.65;;;8.10;1.00;;;;;;5009410;28;20057;-67
2023/01/19 11:08:32;;;;;;;10.60;0.80;;;8.20;99.90;;;;;;4978206;28;20427;-67
2023/01/19 11:11:06;;;;;;;8.63;0.63;;;8.20;99.90;;;;;;5012893;28;20332;-66
2023/01/19 11:13:33;;;;;;;7.75;0.52;;;8.30;99.90;;;;;;5010285;28;20053;-66
2023/01/19 11:16:07;;;;;;;6.68;0.90;;;8.30;1.00;;;;;;5012337;28;20052;-66
2023/01/19 11:18:33;;;;;;;5.72;0.50;;;8.40;99.90;;;;;;5010239;28;20475;-66
2023/01/19 11:21:02;;;;;;;11.20;0.68;;;8.30;1.00;;;;;;5010626;28;20095;-66
2023/01/19 11:23:41;;;;;;;10.55;1.00;;;8.20;1.00;;;;;;5011748;28;20033;-66
2023/01/19 11:26:14;;;;;;;6.70;0.43;;;8.30;99.90;;;;;;4979745;28;20049;-66
2023/01/19 11:28:47;;;;;;;14.10;1.15;;;8.30;99.90;;;;;;5010637;28;20033;-66
2023/01/19 11:31:12;;;;;;;9.90;1.02;;;8.30;1.00;;;;;;5011159;28;20340;-65
2023/01/19 11:33:49;;;;;;;7.15;0.90;;;8.40;1.00;;;;;;5026278;28;20057;-66
2023/01/19 11:36:21;;;;;;;6.57;0.73;;;8.30;99.90;;;;;;5030305;28;20458;-65
2023/01/19 11:38:52;;;;;;;7.80;0.52;;;8.30;99.90;;;;;;5013361;28;20045;-65
2023/01/19 11:41:24;;;;;;;4.38;0.40;;;8.20;99.90;;;;;;5012792;28;20288;-66
2023/01/19 11:43:54;;;;;;;7.78;0.52;;;8.00;99.90;;;;;;5012645;28;20045;-65
2023/01/19 11:46:21;;;;;;;8.90;0.60;;;7.90;99.90;;;;;;5012847;28;20216;-65
2023/01/19 11:49:12;;;;;;;9.18;0.50;;;8.20;99.90;;;;;;5030846;28;20048;-65
2023/01/19 11:52:22;;;;;;;7.60;0.60;;;8.00;99.90;;;;;;5029962;28;20114;-65
2023/01/19 11:55:01;;;;;;;10.52;0.93;;;7.90;99.90;;;;;;5012651;28;20071;-66
2023/01/19 11:57:27;;;;;;;10.07;0.88;;;8.10;99.90;;;;;;5029441;28;20478;-66
2023/01/19 11:59:53;;;;;;;10.13;0.75;;;8.10;99.90;;;;;;5011473;28;20041;-63
2023/01/19 12:02:42;;;;;;;7.88;0.70;;;7.70;99.90;;;;;;5011991;28;20071;-65
2023/01/19 12:05:14;;;;;;;8.35;1.05;;;6.90;99.90;;;;;;5011374;28;20099;-65
2023/01/19 12:07:42;;;;;;;8.02;0.50;;;6.60;99.90;;;;;;5028874;28;20199;-65
2023/01/19 12:10:24;;;;;;;11.40;0.82;;;6.80;99.90;;;;;;5031279;28;20037;-66
2023/01/19 12:12:51;;;;;;;6.60;0.40;;;7.00;99.90;;;;;;5013537;28;20056;-65
2023/01/19 12:15:37;;;;;;;9.80;0.57;;;7.00;99.90;;;;;;4996922;28;20450;-65
2023/01/19 12:18:06;;;;;;;6.25;0.40;;;6.70;99.90;;;;;;5030632;28;20595;-65
2023/01/19 12:20:45;;;;;;;11.52;0.80;;;6.50;99.90;;;;;;5011968;28;20045;-65
2023/01/19 12:23:37;;;;;;;10.55;0.90;;;6.50;99.90;;;;;;5031170;28;20124;-64
2023/01/19 12:26:15;;;;;;;6.13;0.40;;;6.50;99.90;;;;;;5011974;28;20442;-64
2023/01/19 12:28:46;;;;;;;8.85;0.60;;;6.20;99.90;;;;;;5005218;28;20398;-64
2023/01/19 12:31:21;;;;;;;12.63;0.88;;;5.90;99.90;;;;;;4996031;28;20040;-64
2023/01/19 12:33:47;;;;;;;9.40;0.68;;;5.60;99.90;;;;;;5012115;28;20061;-65
2023/01/19 12:36:15;;;;;;;9.27;0.73;;;5.60;99.90;;;;;;5030564;28;20102;-65
2023/01/19 12:38:49;;;;;;;5.70;0.60;;;6.30;99.90;;;;;;5028633;28;20052;-64
2023/01/19 12:41:35;;;;;;;8.05;0.57;;;7.00;99.90;;;;;;5030098;28;20072;-65
2023/01/19 12:46:45;;;;;;;8.15;0.55;;;8.20;99.90;;;;;;5029653;28;20246;-65
2023/01/19 12:49:29;;;;;;;9.68;0.70;;;8.20;99.90;;;;;;5028857;28;20367;-65
2023/01/19 12:52:20;;;;;;;7.97;0.63;;;8.30;99.90;;;;;;5012097;28;20487;-65
2023/01/19 12:54:52;;;;;;;8.68;0.40;;;8.50;99.90;;;;;;5012696;28;20377;-64
2023/01/19 12:57:44;;;;;;;11.23;0.73;;;8.50;99.90;;;;;;5010878;28;20746;-64
2023/01/19 13:00:22;;;;;;;7.28;0.40;;;7.60;99.90;;;;;;5022245;28;20056;-64
2023/01/19 13:02:53;;;;;;;4.90;0.30;;;6.90;99.90;;;;;;5013107;28;20049;-64
2023/01/19 13:05:30;;;;;;;7.45;0.30;;;6.10;99.90;;;;;;5014121;28;20236;-67
2023/01/19 13:08:05;;;;;;;4.30;0.30;;;5.60;99.90;;;;;;4991794;28;20123;-64
2023/01/19 13:10:53;;;;;;;6.85;0.30;;;5.20;99.90;;;;;;5015551;28;20021;-63
2023/01/19 13:13:20;;;;;;;3.30;0.20;;;4.80;99.90;;;;;;5015824;28;20036;-63